sensor_id;sensor_type;location;lat;lon;timestamp;P1;durP1;ratioP1;P2;durP2;ratioP2
20711;SDS011;10517;50.742;4.224;2023-07-13T00:01:43;5.50;;;1.80;;
20711;SDS011;10517;50.742;4.224;2023-07-13T00:04:08;7.47;;;2.28;;
20711;SDS011;10517;50.742;4.224;2023-07-13T00:06:34;5.05;;;1.90;;
20711;SDS011;10517;50.742;4.224;2023-07-13T00:09:00;3.90;;;1.88;;
20711;SDS011;10517;50.742;4.224;2023-07-13T00:11:26;7.05;;;1.80;;
20711;SDS011;10517;50.742;4.224;2023-07-13T00:13:52;2.65;;;1.58;;
20711;SDS011;10517;50.742;4.224;2023-07-13T00:16:18;4.50;;;1.73;;
20711;SDS011;10517;50.742;4.224;2023-07-13T00:18:44;10.20;;;2.10;;
20711;SDS011;10517;50.742;4.224;2023-07-13T00:21:10;5.65;;;2.10;;
20711;SDS011;10517;50.742;4.224;2023-07-13T00:23:38;8.73;;;2.00;;
20711;SDS011;10517;50.742;4.224;2023-07-13T00:26:05;2.42;;;1.60;;
20711;SDS011;10517;50.742;4.224;2023-07-13T00:28:32;5.00;;;2.30;;
20711;SDS011;10517;50.742;4.224;2023-07-13T00:30:59;6.13;;;1.77;;
20711;SDS011;10517;50.742;4.224;2023-07-13T00:33:26;3.03;;;1.85;;
20711;SDS011;10517;50.742;4.224;2023-07-13T00:35:53;4.35;;;2.10;;
20711;SDS011;10517;50.742;4.224;2023-07-13T00:38:19;7.60;;;1.88;;
20711;SDS011;10517;50.742;4.224;2023-07-13T00:40:45;3.03;;;1.60;;
20711;SDS011;10517;50.742;4.224;2023-07-13T00:43:15;10.20;;;2.47;;
20711;SDS011;10517;50.742;4.224;2023-07-13T00:48:14;8.70;;;1.80;;
20711;SDS011;10517;50.742;4.224;2023-07-13T00:50:43;9.82;;;1.90;;
20711;SDS011;10517;50.742;4.224;2023-07-13T00:53:11;3.95;;;1.60;;
20711;SDS011;10517;50.742;4.224;2023-07-13T00:55:38;8.18;;;2.00;;
20711;SDS011;10517;50.742;4.224;2023-07-13T00:58:04;8.68;;;3.03;;
20711;SDS011;10517;50.742;4.224;2023-07-13T01:00:31;3.58;;;1.52;;
20711;SDS011;10517;50.742;4.224;2023-07-13T01:02:59;6.82;;;2.17;;
20711;SDS011;10517;50.742;4.224;2023-07-13T01:05:29;9.25;;;2.40;;
20711;SDS011;10517;50.742;4.224;2023-07-13T01:07:57;9.60;;;2.15;;
20711;SDS011;10517;50.742;4.224;2023-07-13T01:10:23;4.28;;;1.42;;
20711;SDS011;10517;50.742;4.224;2023-07-13T01:12:50;7.50;;;2.00;;
20711;SDS011;10517;50.742;4.224;2023-07-13T01:15:39;7.10;;;2.22;;
20711;SDS011;10517;50.742;4.224;2023-07-13T01:18:08;5.72;;;2.22;;
20711;SDS011;10517;50.742;4.224;2023-07-13T01:20:36;2.55;;;1.45;;
20711;SDS011;10517;50.742;4.224;2023-07-13T01:23:04;8.50;;;2.03;;
20711;SDS011;10517;50.742;4.224;2023-07-13T01:25:31;6.75;;;1.83;;
20711;SDS011;10517;50.742;4.224;2023-07-13T01:27:57;12.80;;;1.95;;
20711;SDS011;10517;50.742;4.224;2023-07-13T01:30:23;3.90;;;2.33;;
20711;SDS011;10517;50.742;4.224;2023-07-13T01:32:48;9.65;;;2.00;;
20711;SDS011;10517;50.742;4.224;2023-07-13T01:35:14;11.52;;;2.92;;
20711;SDS011;10517;50.742;4.224;2023-07-13T01:37:41;7.25;;;1.83;;
20711;SDS011;10517;50.742;4.224;2023-07-13T01:40:10;4.45;;;1.75;;
20711;SDS011;10517;50.742;4.224;2023-07-13T01:42:36;10.13;;;2.33;;
20711;SDS011;10517;50.742;4.224;2023-07-13T01:45:02;7.47;;;2.10;;
20711;SDS011;10517;50.742;4.224;2023-07-13T01:47:28;4.20;;;1.80;;
20711;SDS011;10517;50.742;4.224;2023-07-13T01:49:55;8.77;;;2.95;;
20711;SDS011;10517;50.742;4.224;2023-07-13T01:52:21;5.97;;;1.80;;
20711;SDS011;10517;50.742;4.224;2023-07-13T01:54:47;5.28;;;2.13;;
20711;SDS011;10517;50.742;4.224;2023-07-13T01:57:13;5.47;;;2.33;;
20711;SDS011;10517;50.742;4.224;2023-07-13T01:59:38;6.50;;;2.53;;
20711;SDS011;10517;50.742;4.224;2023-07-13T02:02:04;10.63;;;2.10;;
20711;SDS011;10517;50.742;4.224;2023-07-13T02:04:29;5.72;;;2.30;;
20711;SDS011;10517;50.742;4.224;2023-07-13T02:06:55;3.95;;;1.88;;
20711;SDS011;10517;50.742;4.224;2023-07-13T02:09:21;9.70;;;2.30;;
20711;SDS011;10517;50.742;4.224;2023-07-13T02:11:47;7.55;;;1.75;;
20711;SDS011;10517;50.742;4.224;2023-07-13T02:14:13;8.70;;;2.20;;
20711;SDS011;10517;50.742;4.224;2023-07-13T02:16:40;9.00;;;1.75;;
20711;SDS011;10517;50.742;4.224;2023-07-13T02:19:06;5.90;;;1.98;;
20711;SDS011;10517;50.742;4.224;2023-07-13T02:21:31;7.93;;;2.38;;
20711;SDS011;10517;50.742;4.224;2023-07-13T02:23:57;5.45;;;2.50;;
20711;SDS011;10517;50.742;4.224;2023-07-13T02:26:22;9.82;;;2.47;;
20711;SDS011;10517;50.742;4.224;2023-07-13T02:28:49;7.13;;;2.35;;
20711;SDS011;10517;50.742;4.224;2023-07-13T02:31:15;6.32;;;2.45;;
20711;SDS011;10517;50.742;4.224;2023-07-13T02:33:40;8.93;;;2.10;;
20711;SDS011;10517;50.742;4.224;2023-07-13T02:36:07;10.15;;;3.88;;
20711;SDS011;10517;50.742;4.224;2023-07-13T02:38:33;8.30;;;2.45;;
20711;SDS011;10517;50.742;4.224;2023-07-13T02:40:59;13.40;;;2.65;;
20711;SDS011;10517;50.742;4.224;2023-07-13T02:43:26;4.07;;;2.08;;
20711;SDS011;10517;50.742;4.224;2023-07-13T02:45:52;5.80;;;2.15;;
20711;SDS011;10517;50.742;4.224;2023-07-13T02:48:18;5.20;;;2.40;;
20711;SDS011;10517;50.742;4.224;2023-07-13T02:50:44;5.28;;;2.28;;
20711;SDS011;10517;50.742;4.224;2023-07-13T02:53:10;6.22;;;2.17;;
20711;SDS011;10517;50.742;4.224;2023-07-13T02:55:35;13.98;;;3.72;;
20711;SDS011;10517;50.742;4.224;2023-07-13T02:58:01;10.25;;;2.53;;
20711;SDS011;10517;50.742;4.224;2023-07-13T03:00:27;4.90;;;2.42;;
20711;SDS011;10517;50.742;4.224;2023-07-13T03:02:52;3.05;;;2.28;;
20711;SDS011;10517;50.742;4.224;2023-07-13T03:05:22;3.65;;;2.10;;
20711;SDS011;10517;50.742;4.224;2023-07-13T03:07:48;7.28;;;3.17;;
20711;SDS011;10517;50.742;4.224;2023-07-13T03:10:14;10.60;;;2.70;;
20711;SDS011;10517;50.742;4.224;2023-07-13T03:12:39;5.47;;;2.55;;
20711;SDS011;10517;50.742;4.224;2023-07-13T03:15:05;6.45;;;2.05;;
20711;SDS011;10517;50.742;4.224;2023-07-13T03:17:31;8.73;;;2.20;;
20711;SDS011;10517;50.742;4.224;2023-07-13T03:19:56;18.33;;;2.72;;
20711;SDS011;10517;50.742;4.224;2023-07-13T03:22:22;7.85;;;2.28;;
20711;SDS011;10517;50.742;4.224;2023-07-13T03:24:48;7.53;;;2.60;;
20711;SDS011;10517;50.742;4.224;2023-07-13T03:27:15;5.57;;;2.53;;
20711;SDS011;10517;50.742;4.224;2023-07-13T03:29:41;3.90;;;2.05;;
20711;SDS011;10517;50.742;4.224;2023-07-13T03:32:07;12.80;;;3.72;;
20711;SDS011;10517;50.742;4.224;2023-07-13T03:34:33;9.25;;;2.30;;
20711;SDS011;10517;50.742;4.224;2023-07-13T03:36:58;4.85;;;2.42;;
20711;SDS011;10517;50.742;4.224;2023-07-13T03:39:24;8.68;;;2.50;;
20711;SDS011;10517;50.742;4.224;2023-07-13T03:41:49;9.93;;;2.45;;
20711;SDS011;10517;50.742;4.224;2023-07-13T03:44:15;5.20;;;2.33;;
20711;SDS011;10517;50.742;4.224;2023-07-13T03:46:42;7.38;;;2.20;;
20711;SDS011;10517;50.742;4.224;2023-07-13T03:49:08;4.35;;;2.42;;
20711;SDS011;10517;50.742;4.224;2023-07-13T03:51:34;4.85;;;2.20;;
20711;SDS011;10517;50.742;4.224;2023-07-13T03:53:59;12.30;;;2.58;;
20711;SDS011;10517;50.742;4.224;2023-07-13T03:56:26;5.03;;;2.20;;
20711;SDS011;10517;50.742;4.224;2023-07-13T03:58:52;9.88;;;2.45;;
20711;SDS011;10517;50.742;4.224;2023-07-13T04:01:18;11.35;;;2.97;;
20711;SDS011;10517;50.742;4.224;2023-07-13T04:03:46;4.97;;;2.33;;
20711;SDS011;10517;50.742;4.224;2023-07-13T04:06:14;5.53;;;2.63;;
20711;SDS011;10517;50.742;4.224;2023-07-13T04:08:46;8.32;;;2.75;;
20711;SDS011;10517;50.742;4.224;2023-07-13T04:11:14;10.77;;;2.70;;
20711;SDS011;10517;50.742;4.224;2023-07-13T04:13:40;13.25;;;2.53;;
20711;SDS011;10517;50.742;4.224;2023-07-13T04:16:05;9.13;;;2.42;;
20711;SDS011;10517;50.742;4.224;2023-07-13T04:18:31;8.82;;;3.13;;
20711;SDS011;10517;50.742;4.224;2023-07-13T04:20:57;17.98;;;2.85;;
20711;SDS011;10517;50.742;4.224;2023-07-13T04:23:22;9.13;;;2.42;;
20711;SDS011;10517;50.742;4.224;2023-07-13T04:25:49;7.22;;;2.60;;
20711;SDS011;10517;50.742;4.224;2023-07-13T04:28:19;11.13;;;2.53;;
20711;SDS011;10517;50.742;4.224;2023-07-13T04:30:46;11.55;;;2.58;;
20711;SDS011;10517;50.742;4.224;2023-07-13T04:33:12;10.77;;;2.70;;
20711;SDS011;10517;50.742;4.224;2023-07-13T04:35:37;6.85;;;2.42;;
20711;SDS011;10517;50.742;4.224;2023-07-13T04:38:03;7.00;;;2.20;;
20711;SDS011;10517;50.742;4.224;2023-07-13T04:40:29;9.10;;;2.85;;
20711;SDS011;10517;50.742;4.224;2023-07-13T04:42:55;5.85;;;2.28;;
20711;SDS011;10517;50.742;4.224;2023-07-13T04:45:21;9.13;;;3.10;;
20711;SDS011;10517;50.742;4.224;2023-07-13T04:47:46;4.00;;;2.15;;
20711;SDS011;10517;50.742;4.224;2023-07-13T04:50:13;10.02;;;2.17;;
20711;SDS011;10517;50.742;4.224;2023-07-13T04:52:45;7.75;;;1.83;;
20711;SDS011;10517;50.742;4.224;2023-07-13T04:55:11;22.40;;;2.85;;
20711;SDS011;10517;50.742;4.224;2023-07-13T04:57:37;10.85;;;2.20;;
20711;SDS011;10517;50.742;4.224;2023-07-13T05:00:03;13.70;;;2.88;;
20711;SDS011;10517;50.742;4.224;2023-07-13T05:02:31;9.70;;;2.35;;
20711;SDS011;10517;50.742;4.224;2023-07-13T05:04:58;8.55;;;2.70;;
20711;SDS011;10517;50.742;4.224;2023-07-13T05:07:24;9.27;;;2.67;;
20711;SDS011;10517;50.742;4.224;2023-07-13T05:09:50;6.45;;;2.30;;
20711;SDS011;10517;50.742;4.224;2023-07-13T05:12:16;11.50;;;2.75;;
20711;SDS011;10517;50.742;4.224;2023-07-13T05:14:41;10.50;;;2.42;;
20711;SDS011;10517;50.742;4.224;2023-07-13T05:17:07;8.93;;;2.08;;
20711;SDS011;10517;50.742;4.224;2023-07-13T05:19:33;7.03;;;2.45;;
20711;SDS011;10517;50.742;4.224;2023-07-13T05:21:59;6.57;;;2.28;;
20711;SDS011;10517;50.742;4.224;2023-07-13T05:24:25;4.70;;;1.80;;
20711;SDS011;10517;50.742;4.224;2023-07-13T05:26:50;3.67;;;2.42;;
20711;SDS011;10517;50.742;4.224;2023-07-13T05:29:16;4.78;;;1.77;;
20711;SDS011;10517;50.742;4.224;2023-07-13T05:31:42;7.95;;;1.77;;
20711;SDS011;10517;50.742;4.224;2023-07-13T05:34:07;3.13;;;1.80;;
20711;SDS011;10517;50.742;4.224;2023-07-13T05:36:33;6.97;;;2.20;;
20711;SDS011;10517;50.742;4.224;2023-07-13T05:38:59;4.88;;;2.35;;
20711;SDS011;10517;50.742;4.224;2023-07-13T05:41:25;5.28;;;1.70;;
20711;SDS011;10517;50.742;4.224;2023-07-13T05:43:50;10.00;;;2.80;;
20711;SDS011;10517;50.742;4.224;2023-07-13T05:46:16;11.50;;;2.45;;
20711;SDS011;10517;50.742;4.224;2023-07-13T05:48:41;6.63;;;2.22;;
20711;SDS011;10517;50.742;4.224;2023-07-13T05:51:07;7.70;;;2.15;;
20711;SDS011;10517;50.742;4.224;2023-07-13T05:53:33;4.97;;;1.90;;
20711;SDS011;10517;50.742;4.224;2023-07-13T05:55:59;8.13;;;2.40;;
20711;SDS011;10517;50.742;4.224;2023-07-13T05:58:25;9.73;;;2.53;;
20711;SDS011;10517;50.742;4.224;2023-07-13T06:00:58;9.35;;;2.03;;
20711;SDS011;10517;50.742;4.224;2023-07-13T06:03:25;7.88;;;2.20;;
20711;SDS011;10517;50.742;4.224;2023-07-13T06:05:51;3.72;;;1.70;;
20711;SDS011;10517;50.742;4.224;2023-07-13T06:08:16;4.85;;;2.05;;
20711;SDS011;10517;50.742;4.224;2023-07-13T06:10:42;9.70;;;3.53;;
20711;SDS011;10517;50.742;4.224;2023-07-13T06:13:08;25.30;;;3.33;;
20711;SDS011;10517;50.742;4.224;2023-07-13T06:15:33;7.55;;;2.47;;
20711;SDS011;10517;50.742;4.224;2023-07-13T06:17:59;8.57;;;2.10;;
20711;SDS011;10517;50.742;4.224;2023-07-13T06:20:25;5.32;;;1.90;;
20711;SDS011;10517;50.742;4.224;2023-07-13T06:22:50;12.07;;;2.40;;
20711;SDS011;10517;50.742;4.224;2023-07-13T06:25:16;12.85;;;2.30;;
20711;SDS011;10517;50.742;4.224;2023-07-13T06:27:42;5.63;;;2.13;;
20711;SDS011;10517;50.742;4.224;2023-07-13T06:30:08;6.32;;;1.98;;
20711;SDS011;10517;50.742;4.224;2023-07-13T06:32:35;16.17;;;3.08;;
20711;SDS011;10517;50.742;4.224;2023-07-13T06:35:00;7.63;;;2.20;;
20711;SDS011;10517;50.742;4.224;2023-07-13T06:37:26;6.90;;;2.50;;
20711;SDS011;10517;50.742;4.224;2023-07-13T06:39:52;6.00;;;2.45;;
20711;SDS011;10517;50.742;4.224;2023-07-13T06:42:17;8.80;;;3.30;;
20711;SDS011;10517;50.742;4.224;2023-07-13T06:44:43;4.45;;;2.13;;
20711;SDS011;10517;50.742;4.224;2023-07-13T06:47:09;6.78;;;1.95;;
20711;SDS011;10517;50.742;4.224;2023-07-13T06:49:34;7.35;;;2.70;;
20711;SDS011;10517;50.742;4.224;2023-07-13T06:52:00;6.25;;;2.03;;
20711;SDS011;10517;50.742;4.224;2023-07-13T06:54:25;12.27;;;2.78;;
20711;SDS011;10517;50.742;4.224;2023-07-13T06:56:51;7.13;;;2.30;;
20711;SDS011;10517;50.742;4.224;2023-07-13T06:59:17;4.25;;;2.45;;
20711;SDS011;10517;50.742;4.224;2023-07-13T07:01:43;5.30;;;2.42;;
20711;SDS011;10517;50.742;4.224;2023-07-13T07:04:09;9.02;;;2.63;;
20711;SDS011;10517;50.742;4.224;2023-07-13T07:06:34;5.55;;;2.45;;
20711;SDS011;10517;50.742;4.224;2023-07-13T07:09:00;6.80;;;2.33;;
20711;SDS011;10517;50.742;4.224;2023-07-13T07:11:26;7.53;;;2.25;;
20711;SDS011;10517;50.742;4.224;2023-07-13T07:13:52;7.78;;;2.47;;
20711;SDS011;10517;50.742;4.224;2023-07-13T07:16:18;11.15;;;2.35;;
20711;SDS011;10517;50.742;4.224;2023-07-13T07:18:45;7.00;;;2.33;;
20711;SDS011;10517;50.742;4.224;2023-07-13T07:21:11;11.18;;;2.80;;
20711;SDS011;10517;50.742;4.224;2023-07-13T07:23:37;6.38;;;2.20;;
20711;SDS011;10517;50.742;4.224;2023-07-13T07:26:03;5.30;;;2.42;;
20711;SDS011;10517;50.742;4.224;2023-07-13T07:28:29;8.10;;;3.10;;
20711;SDS011;10517;50.742;4.224;2023-07-13T07:30:55;9.00;;;2.38;;
20711;SDS011;10517;50.742;4.224;2023-07-13T07:33:22;5.78;;;2.40;;
20711;SDS011;10517;50.742;4.224;2023-07-13T07:35:49;5.22;;;2.60;;
20711;SDS011;10517;50.742;4.224;2023-07-13T07:38:14;9.77;;;3.20;;
20711;SDS011;10517;50.742;4.224;2023-07-13T07:40:41;8.23;;;2.80;;
20711;SDS011;10517;50.742;4.224;2023-07-13T07:43:07;6.72;;;3.83;;
20711;SDS011;10517;50.742;4.224;2023-07-13T07:45:34;7.57;;;2.78;;
20711;SDS011;10517;50.742;4.224;2023-07-13T07:48:00;7.10;;;2.67;;
20711;SDS011;10517;50.742;4.224;2023-07-13T07:50:26;5.65;;;2.72;;
20711;SDS011;10517;50.742;4.224;2023-07-13T07:52:52;9.27;;;3.42;;
20711;SDS011;10517;50.742;4.224;2023-07-13T07:55:18;9.93;;;3.10;;
20711;SDS011;10517;50.742;4.224;2023-07-13T07:57:44;10.68;;;3.17;;
20711;SDS011;10517;50.742;4.224;2023-07-13T08:00:09;2.78;;;2.30;;
20711;SDS011;10517;50.742;4.224;2023-07-13T08:02:35;4.75;;;2.80;;
20711;SDS011;10517;50.742;4.224;2023-07-13T08:05:01;7.45;;;2.92;;
20711;SDS011;10517;50.742;4.224;2023-07-13T08:07:26;8.70;;;3.28;;
20711;SDS011;10517;50.742;4.224;2023-07-13T08:09:52;4.75;;;2.55;;
20711;SDS011;10517;50.742;4.224;2023-07-13T08:12:18;9.02;;;2.90;;
20711;SDS011;10517;50.742;4.224;2023-07-13T08:14:44;8.38;;;3.88;;
20711;SDS011;10517;50.742;4.224;2023-07-13T08:17:10;6.63;;;3.53;;
20711;SDS011;10517;50.742;4.224;2023-07-13T08:19:35;12.43;;;3.67;;
20711;SDS011;10517;50.742;4.224;2023-07-13T08:22:01;8.93;;;2.70;;
20711;SDS011;10517;50.742;4.224;2023-07-13T08:24:26;9.13;;;2.95;;
20711;SDS011;10517;50.742;4.224;2023-07-13T08:26:52;7.20;;;2.92;;
20711;SDS011;10517;50.742;4.224;2023-07-13T08:29:18;5.68;;;2.83;;
20711;SDS011;10517;50.742;4.224;2023-07-13T08:31:43;6.80;;;2.85;;
20711;SDS011;10517;50.742;4.224;2023-07-13T08:34:09;5.03;;;3.30;;
20711;SDS011;10517;50.742;4.224;2023-07-13T08:36:36;7.05;;;3.10;;
20711;SDS011;10517;50.742;4.224;2023-07-13T08:39:02;6.75;;;3.65;;
20711;SDS011;10517;50.742;4.224;2023-07-13T08:41:27;7.55;;;3.28;;
20711;SDS011;10517;50.742;4.224;2023-07-13T08:43:56;8.95;;;3.47;;
20711;SDS011;10517;50.742;4.224;2023-07-13T08:48:56;4.22;;;3.42;;
20711;SDS011;10517;50.742;4.224;2023-07-13T08:54:04;10.27;;;3.63;;
20711;SDS011;10517;50.742;4.224;2023-07-13T08:56:38;6.70;;;3.40;;
20711;SDS011;10517;50.742;4.224;2023-07-13T08:59:13;4.32;;;3.10;;
20711;SDS011;10517;50.742;4.224;2023-07-13T09:04:41;6.20;;;3.10;;
20711;SDS011;10517;50.742;4.224;2023-07-13T09:10:13;4.20;;;3.30;;
20711;SDS011;10517;50.742;4.224;2023-07-13T09:12:51;9.25;;;3.78;;
20711;SDS011;10517;50.742;4.224;2023-07-13T09:15:38;5.80;;;3.45;;
20711;SDS011;10517;50.742;4.224;2023-07-13T09:18:08;6.88;;;3.97;;
20711;SDS011;10517;50.742;4.224;2023-07-13T09:23:17;6.63;;;2.97;;
20711;SDS011;10517;50.742;4.224;2023-07-13T09:25:45;4.10;;;2.75;;
20711;SDS011;10517;50.742;4.224;2023-07-13T09:28:26;5.90;;;3.13;;
20711;SDS011;10517;50.742;4.224;2023-07-13T09:33:35;6.05;;;3.53;;
20711;SDS011;10517;50.742;4.224;2023-07-13T09:36:00;5.82;;;3.45;;
20711;SDS011;10517;50.742;4.224;2023-07-13T09:38:33;4.63;;;3.45;;
20711;SDS011;10517;50.742;4.224;2023-07-13T09:41:04;7.18;;;3.63;;
20711;SDS011;10517;50.742;4.224;2023-07-13T09:46:45;4.05;;;3.38;;
20711;SDS011;10517;50.742;4.224;2023-07-13T09:49:17;7.20;;;3.38;;
20711;SDS011;10517;50.742;4.224;2023-07-13T09:51:43;5.72;;;3.20;;
20711;SDS011;10517;50.742;4.224;2023-07-13T09:54:19;5.97;;;3.33;;
20711;SDS011;10517;50.742;4.224;2023-07-13T09:56:45;8.40;;;3.72;;
20711;SDS011;10517;50.742;4.224;2023-07-13T09:59:18;5.03;;;3.88;;
20711;SDS011;10517;50.742;4.224;2023-07-13T10:01:51;6.35;;;3.28;;
20711;SDS011;10517;50.742;4.224;2023-07-13T10:04:17;4.75;;;3.70;;
20711;SDS011;10517;50.742;4.224;2023-07-13T10:06:44;6.05;;;4.10;;
20711;SDS011;10517;50.742;4.224;2023-07-13T10:09:15;7.68;;;3.50;;
20711;SDS011;10517;50.742;4.224;2023-07-13T10:11:42;5.78;;;3.53;;
20711;SDS011;10517;50.742;4.224;2023-07-13T10:14:13;6.10;;;3.65;;
20711;SDS011;10517;50.742;4.224;2023-07-13T10:16:41;6.95;;;3.20;;
20711;SDS011;10517;50.742;4.224;2023-07-13T10:19:14;3.88;;;3.20;;
20711;SDS011;10517;50.742;4.224;2023-07-13T10:21:55;7.40;;;3.25;;
20711;SDS011;10517;50.742;4.224;2023-07-13T10:24:27;5.45;;;3.60;;
20711;SDS011;10517;50.742;4.224;2023-07-13T10:27:00;5.03;;;3.40;;
20711;SDS011;10517;50.742;4.224;2023-07-13T10:32:54;5.63;;;3.85;;
20711;SDS011;10517;50.742;4.224;2023-07-13T10:35:23;6.55;;;3.88;;
20711;SDS011;10517;50.742;4.224;2023-07-13T10:37:54;3.78;;;3.45;;
20711;SDS011;10517;50.742;4.224;2023-07-13T10:40:24;3.58;;;3.28;;
20711;SDS011;10517;50.742;4.224;2023-07-13T10:43:04;7.18;;;4.35;;
20711;SDS011;10517;50.742;4.224;2023-07-13T10:45:38;5.95;;;3.65;;
20711;SDS011;10517;50.742;4.224;2023-07-13T10:48:05;3.58;;;3.30;;
20711;SDS011;10517;50.742;4.224;2023-07-13T10:50:37;12.30;;;3.97;;
20711;SDS011;10517;50.742;4.224;2023-07-13T10:53:19;3.85;;;3.53;;
20711;SDS011;10517;50.742;4.224;2023-07-13T10:58:19;4.70;;;3.53;;
20711;SDS011;10517;50.742;4.224;2023-07-13T11:03:32;5.72;;;3.47;;
20711;SDS011;10517;50.742;4.224;2023-07-13T11:14:01;5.20;;;3.65;;
20711;SDS011;10517;50.742;4.224;2023-07-13T11:16:45;4.72;;;3.47;;
20711;SDS011;10517;50.742;4.224;2023-07-13T11:24:47;3.88;;;3.58;;
20711;SDS011;10517;50.742;4.224;2023-07-13T11:27:37;4.78;;;3.22;;
20711;SDS011;10517;50.742;4.224;2023-07-13T11:30:18;3.10;;;2.97;;
20711;SDS011;10517;50.742;4.224;2023-07-13T11:38:42;4.57;;;3.50;;
20711;SDS011;10517;50.742;4.224;2023-07-13T11:41:53;3.95;;;3.58;;
20711;SDS011;10517;50.742;4.224;2023-07-13T11:44:05;5.50;;;3.88;;
20711;SDS011;10517;50.742;4.224;2023-07-13T11:46:49;3.20;;;2.97;;
20711;SDS011;10517;50.742;4.224;2023-07-13T11:49:17;4.82;;;3.42;;
20711;SDS011;10517;50.742;4.224;2023-07-13T11:51:45;4.43;;;3.33;;
20711;SDS011;10517;50.742;4.224;2023-07-13T11:54:24;5.13;;;3.20;;
20711;SDS011;10517;50.742;4.224;2023-07-13T11:56:51;3.55;;;3.33;;
20711;SDS011;10517;50.742;4.224;2023-07-13T11:59:17;8.98;;;3.50;;
20711;SDS011;10517;50.742;4.224;2023-07-13T12:01:44;3.38;;;3.17;;
20711;SDS011;10517;50.742;4.224;2023-07-13T12:04:21;4.90;;;3.45;;
20711;SDS011;10517;50.742;4.224;2023-07-13T12:07:14;3.40;;;3.10;;
20711;SDS011;10517;50.742;4.224;2023-07-13T12:09:41;3.40;;;3.10;;
20711;SDS011;10517;50.742;4.224;2023-07-13T12:12:17;3.47;;;3.28;;
20711;SDS011;10517;50.742;4.224;2023-07-13T12:14:44;3.28;;;3.08;;
20711;SDS011;10517;50.742;4.224;2023-07-13T12:17:18;4.55;;;3.92;;
20711;SDS011;10517;50.742;4.224;2023-07-13T12:19:45;3.47;;;3.20;;
20711;SDS011;10517;50.742;4.224;2023-07-13T12:22:13;3.22;;;3.03;;
20711;SDS011;10517;50.742;4.224;2023-07-13T12:24:41;4.47;;;3.50;;
20711;SDS011;10517;50.742;4.224;2023-07-13T12:27:21;3.38;;;3.17;;
20711;SDS011;10517;50.742;4.224;2023-07-13T12:29:56;3.63;;;3.30;;
20711;SDS011;10517;50.742;4.224;2023-07-13T12:32:25;4.88;;;3.40;;
20711;SDS011;10517;50.742;4.224;2023-07-13T12:34:55;3.92;;;3.60;;
20711;SDS011;10517;50.742;4.224;2023-07-13T12:37:22;3.97;;;3.20;;
20711;SDS011;10517;50.742;4.224;2023-07-13T12:39:49;3.05;;;2.85;;
20711;SDS011;10517;50.742;4.224;2023-07-13T12:44:53;3.97;;;2.97;;
20711;SDS011;10517;50.742;4.224;2023-07-13T12:47:24;3.50;;;2.53;;
20711;SDS011;10517;50.742;4.224;2023-07-13T12:49:53;2.30;;;2.20;;
20711;SDS011;10517;50.742;4.224;2023-07-13T12:52:27;2.60;;;2.50;;
20711;SDS011;10517;50.742;4.224;2023-07-13T12:57:38;3.40;;;3.20;;
20711;SDS011;10517;50.742;4.224;2023-07-13T13:00:13;3.45;;;2.45;;
20711;SDS011;10517;50.742;4.224;2023-07-13T13:02:49;3.10;;;2.85;;
20711;SDS011;10517;50.742;4.224;2023-07-13T13:05:16;3.50;;;3.20;;
20711;SDS011;10517;50.742;4.224;2023-07-13T13:07:42;2.65;;;2.55;;
20711;SDS011;10517;50.742;4.224;2023-07-13T13:10:11;4.78;;;3.15;;
20711;SDS011;10517;50.742;4.224;2023-07-13T13:12:37;3.50;;;3.17;;
20711;SDS011;10517;50.742;4.224;2023-07-13T13:15:03;4.30;;;3.88;;
20711;SDS011;10517;50.742;4.224;2023-07-13T13:17:32;3.70;;;3.42;;
20711;SDS011;10517;50.742;4.224;2023-07-13T13:19:58;5.22;;;3.13;;
20711;SDS011;10517;50.742;4.224;2023-07-13T13:22:24;3.95;;;3.65;;
20711;SDS011;10517;50.742;4.224;2023-07-13T13:24:49;3.72;;;3.53;;
20711;SDS011;10517;50.742;4.224;2023-07-13T13:27:18;4.97;;;3.50;;
20711;SDS011;10517;50.742;4.224;2023-07-13T13:29:47;4.13;;;3.72;;
20711;SDS011;10517;50.742;4.224;2023-07-13T13:32:16;4.15;;;3.72;;
20711;SDS011;10517;50.742;4.224;2023-07-13T13:34:42;3.70;;;3.50;;
20711;SDS011;10517;50.742;4.224;2023-07-13T13:37:17;4.93;;;3.72;;
20711;SDS011;10517;50.742;4.224;2023-07-13T13:39:45;3.35;;;3.15;;
20711;SDS011;10517;50.742;4.224;2023-07-13T13:42:12;4.50;;;3.78;;
20711;SDS011;10517;50.742;4.224;2023-07-13T13:44:38;3.92;;;3.72;;
20711;SDS011;10517;50.742;4.224;2023-07-13T13:47:07;5.80;;;4.10;;
20711;SDS011;10517;50.742;4.224;2023-07-13T13:49:52;4.30;;;3.90;;
20711;SDS011;10517;50.742;4.224;2023-07-13T13:52:18;6.05;;;3.72;;
20711;SDS011;10517;50.742;4.224;2023-07-13T13:54:43;3.72;;;3.45;;
20711;SDS011;10517;50.742;4.224;2023-07-13T13:57:09;4.00;;;3.70;;
20711;SDS011;10517;50.742;4.224;2023-07-13T13:59:37;3.92;;;3.70;;
20711;SDS011;10517;50.742;4.224;2023-07-13T14:02:08;4.03;;;3.67;;
20711;SDS011;10517;50.742;4.224;2023-07-13T14:04:50;4.05;;;3.80;;
20711;SDS011;10517;50.742;4.224;2023-07-13T14:07:23;4.00;;;3.70;;
20711;SDS011;10517;50.742;4.224;2023-07-13T14:09:48;4.57;;;4.15;;
20711;SDS011;10517;50.742;4.224;2023-07-13T14:12:14;6.60;;;6.07;;
20711;SDS011;10517;50.742;4.224;2023-07-13T14:14:39;9.07;;;8.68;;
20711;SDS011;10517;50.742;4.224;2023-07-13T14:17:09;10.73;;;10.00;;
20711;SDS011;10517;50.742;4.224;2023-07-13T14:19:48;11.60;;;10.80;;
20711;SDS011;10517;50.742;4.224;2023-07-13T14:22:16;9.40;;;8.77;;
20711;SDS011;10517;50.742;4.224;2023-07-13T14:24:43;7.35;;;6.72;;
20711;SDS011;10517;50.742;4.224;2023-07-13T14:27:11;7.13;;;6.53;;
20711;SDS011;10517;50.742;4.224;2023-07-13T14:29:37;6.80;;;6.20;;
20711;SDS011;10517;50.742;4.224;2023-07-13T14:32:03;7.13;;;5.43;;
20711;SDS011;10517;50.742;4.224;2023-07-13T14:34:30;5.60;;;5.20;;
20711;SDS011;10517;50.742;4.224;2023-07-13T14:36:55;5.25;;;4.85;;
20711;SDS011;10517;50.742;4.224;2023-07-13T14:39:22;4.43;;;4.10;;
20711;SDS011;10517;50.742;4.224;2023-07-13T14:41:53;7.38;;;4.40;;
20711;SDS011;10517;50.742;4.224;2023-07-13T14:44:21;4.25;;;3.83;;
20711;SDS011;10517;50.742;4.224;2023-07-13T14:46:49;3.83;;;3.50;;
20711;SDS011;10517;50.742;4.224;2023-07-13T14:51:51;4.63;;;3.25;;
20711;SDS011;10517;50.742;4.224;2023-07-13T14:54:17;3.88;;;3.20;;
20711;SDS011;10517;50.742;4.224;2023-07-13T14:56:42;5.18;;;3.30;;
20711;SDS011;10517;50.742;4.224;2023-07-13T14:59:08;5.90;;;3.20;;
20711;SDS011;10517;50.742;4.224;2023-07-13T15:01:37;5.28;;;3.13;;
20711;SDS011;10517;50.742;4.224;2023-07-13T15:04:04;5.07;;;2.72;;
20711;SDS011;10517;50.742;4.224;2023-07-13T15:06:29;5.30;;;2.90;;
20711;SDS011;10517;50.742;4.224;2023-07-13T15:08:56;4.20;;;2.92;;
20711;SDS011;10517;50.742;4.224;2023-07-13T15:11:22;4.55;;;4.20;;
20711;SDS011;10517;50.742;4.224;2023-07-13T15:13:48;5.35;;;4.35;;
20711;SDS011;10517;50.742;4.224;2023-07-13T15:16:18;5.82;;;5.32;;
20711;SDS011;10517;50.742;4.224;2023-07-13T15:18:48;5.75;;;5.45;;
20711;SDS011;10517;50.742;4.224;2023-07-13T15:21:24;5.50;;;5.20;;
20711;SDS011;10517;50.742;4.224;2023-07-13T15:23:50;6.05;;;5.55;;
20711;SDS011;10517;50.742;4.224;2023-07-13T15:26:17;5.38;;;5.03;;
20711;SDS011;10517;50.742;4.224;2023-07-13T15:28:44;5.88;;;5.45;;
20711;SDS011;10517;50.742;4.224;2023-07-13T15:31:22;5.82;;;5.43;;
20711;SDS011;10517;50.742;4.224;2023-07-13T15:33:53;5.72;;;5.32;;
20711;SDS011;10517;50.742;4.224;2023-07-13T15:36:21;5.43;;;5.03;;
20711;SDS011;10517;50.742;4.224;2023-07-13T15:38:47;5.40;;;5.00;;
20711;SDS011;10517;50.742;4.224;2023-07-13T15:41:22;5.38;;;4.95;;
20711;SDS011;10517;50.742;4.224;2023-07-13T15:43:52;5.28;;;4.90;;
20711;SDS011;10517;50.742;4.224;2023-07-13T15:46:21;4.82;;;4.53;;
20711;SDS011;10517;50.742;4.224;2023-07-13T15:48:48;5.20;;;4.85;;